createdAt,value
2018-06-15T00:00:18.789Z,22.03
2018-06-15T00:03:03.710Z,21.47
2018-06-15T00:05:32.520Z,22.07
2018-06-15T00:08:01.938Z,22.13
2018-06-15T00:10:30.367Z,22.90
2018-06-15T00:12:58.854Z,23.07
2018-06-15T00:15:27.241Z,24.83
2018-06-15T00:17:55.611Z,23.00
2018-06-15T00:20:24.035Z,22.53
2018-06-15T00:22:52.375Z,23.50
2018-06-15T00:25:20.731Z,22.60
2018-06-15T00:27:49.081Z,24.47
2018-06-15T00:30:17.434Z,23.37
2018-06-15T00:32:45.794Z,23.27
2018-06-15T00:35:14.186Z,24.23
2018-06-15T00:37:42.532Z,23.87
2018-06-15T00:40:10.883Z,24.40
2018-06-15T00:42:39.253Z,23.47
2018-06-15T00:45:07.647Z,24.20
2018-06-15T00:47:36.007Z,24.63
2018-06-15T00:50:04.387Z,24.47
2018-06-15T00:52:32.735Z,26.27
2018-06-15T00:55:01.085Z,26.30
2018-06-15T00:57:43.024Z,25.00
2018-06-15T01:00:11.404Z,25.20
2018-06-15T01:02:40.437Z,26.10
2018-06-15T01:05:08.786Z,26.63
2018-06-15T01:07:37.686Z,26.50
2018-06-15T01:10:05.800Z,27.93
2018-06-15T01:12:34.184Z,26.83
2018-06-15T01:15:02.562Z,26.63
2018-06-15T01:17:30.915Z,26.27
2018-06-15T01:19:59.771Z,25.77
2018-06-15T01:22:28.110Z,27.57
2018-06-15T01:24:56.481Z,26.97
2018-06-15T01:27:24.866Z,28.77
2018-06-15T01:29:53.235Z,28.80
2018-06-15T01:32:22.195Z,28.03
2018-06-15T01:34:50.583Z,28.17
2018-06-15T01:37:18.987Z,28.97
2018-06-15T01:39:47.383Z,29.90
2018-06-15T01:42:15.760Z,30.30
2018-06-15T01:44:44.135Z,30.43
2018-06-15T01:47:12.527Z,29.33
2018-06-15T01:49:40.907Z,30.67
2018-06-15T01:52:09.279Z,30.83
2018-06-15T01:54:37.643Z,31.60
2018-06-15T01:57:06.014Z,29.87
2018-06-15T01:59:34.396Z,28.93
2018-06-15T02:02:02.776Z,28.50
2018-06-15T02:04:31.154Z,29.13
2018-06-15T02:06:59.538Z,29.60
2018-06-15T02:09:27.960Z,28.17
2018-06-15T02:11:56.339Z,27.60
2018-06-15T02:14:24.789Z,28.00
2018-06-15T02:16:53.214Z,29.50
2018-06-15T02:19:21.706Z,30.33
2018-06-15T02:21:50.146Z,29.73
2018-06-15T02:24:18.559Z,30.30
2018-06-15T02:26:46.973Z,31.77
2018-06-15T02:29:15.427Z,30.40
2018-06-15T02:31:43.865Z,30.97
2018-06-15T02:34:12.290Z,30.97
2018-06-15T02:36:40.721Z,29.47
2018-06-15T02:39:10.395Z,29.60
2018-06-15T02:41:38.847Z,28.90
2018-06-15T02:44:07.361Z,30.50
2018-06-15T02:46:35.795Z,30.53
2018-06-15T02:49:04.226Z,30.60
2018-06-15T02:51:32.695Z,28.87
2018-06-15T02:54:01.132Z,30.27
2018-06-15T02:56:29.613Z,30.97
2018-06-15T02:58:58.040Z,30.77
2018-06-15T03:01:26.495Z,30.10
2018-06-15T03:03:55.114Z,28.43
2018-06-15T03:06:23.820Z,30.17
2018-06-15T03:08:52.258Z,28.37
2018-06-15T03:11:20.710Z,27.83
2018-06-15T03:13:49.147Z,27.50
2018-06-15T03:16:17.618Z,28.13
2018-06-15T03:18:46.065Z,28.17
2018-06-15T03:21:14.558Z,28.37
2018-06-15T03:23:42.982Z,28.63
2018-06-15T03:26:11.443Z,27.60
2018-06-15T03:28:39.890Z,28.87
2018-06-15T03:31:08.040Z,28.57
2018-06-15T03:33:36.461Z,29.87
2018-06-15T03:36:05.249Z,29.33
2018-06-15T03:38:33.658Z,29.67
2018-06-15T03:41:02.291Z,29.70
2018-06-15T03:43:30.710Z,31.07
2018-06-15T03:45:59.143Z,30.57
2018-06-15T03:48:27.542Z,30.70
2018-06-15T03:50:55.958Z,30.70
2018-06-15T03:53:24.372Z,30.70
2018-06-15T03:55:52.790Z,32.20
2018-06-15T03:58:21.197Z,30.50
2018-06-15T04:00:49.643Z,29.53
2018-06-15T04:03:18.069Z,29.33
2018-06-15T04:05:46.505Z,30.20
2018-06-15T04:08:14.955Z,30.30
2018-06-15T04:10:43.370Z,29.13
2018-06-15T04:13:11.831Z,29.93
2018-06-15T04:15:40.237Z,30.10
2018-06-15T04:18:08.994Z,30.10
2018-06-15T04:20:38.682Z,30.27
2018-06-15T04:23:07.444Z,30.47
2018-06-15T04:25:35.891Z,32.17
2018-06-15T04:28:04.341Z,31.27
2018-06-15T04:30:33.695Z,32.13
2018-06-15T04:33:02.150Z,33.03
2018-06-15T04:35:30.578Z,34.37
2018-06-15T04:37:59.073Z,31.93
2018-06-15T04:40:27.505Z,34.87
2018-06-15T04:42:55.960Z,35.63
2018-06-15T04:45:24.414Z,34.40
2018-06-15T04:47:52.869Z,33.87
2018-06-15T04:50:21.302Z,34.80
2018-06-15T04:52:49.763Z,34.17
2018-06-15T04:55:18.220Z,33.77
2018-06-15T04:57:46.667Z,34.37
2018-06-15T05:00:15.086Z,34.83
2018-06-15T05:02:43.534Z,34.07
2018-06-15T05:05:11.961Z,35.03
2018-06-15T05:07:40.388Z,34.37
2018-06-15T05:10:08.821Z,33.97
2018-06-15T05:12:37.269Z,33.27
2018-06-15T05:15:05.756Z,33.13
2018-06-15T05:17:34.238Z,33.00
2018-06-15T05:20:02.706Z,32.43
2018-06-15T05:22:31.170Z,33.10
2018-06-15T05:24:59.614Z,34.13
2018-06-15T05:27:28.063Z,34.90
2018-06-15T05:29:56.573Z,34.37
2018-06-15T05:32:25.062Z,33.47
2018-06-15T05:34:53.515Z,33.30
2018-06-15T05:37:21.955Z,34.00
2018-06-15T05:39:50.402Z,33.57
2018-06-15T05:42:18.839Z,33.60
2018-06-15T05:44:47.339Z,33.90
2018-06-15T05:47:15.817Z,35.50
2018-06-15T05:49:44.302Z,34.33
2018-06-15T05:52:12.763Z,34.27
2018-06-15T05:54:41.737Z,33.87
2018-06-15T05:57:10.166Z,34.37
2018-06-15T05:59:38.620Z,34.03
2018-06-15T06:02:07.042Z,33.33
2018-06-15T06:04:35.516Z,35.10
2018-06-15T06:07:03.946Z,33.70
2018-06-15T06:09:32.374Z,34.57
2018-06-15T06:12:00.803Z,34.73
2018-06-15T06:14:29.728Z,31.97
2018-06-15T06:16:58.143Z,32.77
2018-06-15T06:19:26.580Z,34.10
2018-06-15T06:21:54.999Z,31.70
2018-06-15T06:24:23.411Z,32.43
2018-06-15T06:26:51.581Z,31.30
2018-06-15T06:29:19.967Z,30.33
2018-06-15T06:31:48.392Z,28.27
2018-06-15T06:34:16.826Z,28.63
2018-06-15T06:36:44.951Z,27.33
2018-06-15T06:39:13.395Z,27.90
2018-06-15T06:41:41.889Z,28.77
2018-06-15T06:44:10.967Z,28.90
2018-06-15T06:46:39.436Z,26.85
2018-06-15T06:49:07.879Z,26.48
2018-06-15T06:51:36.335Z,25.37
2018-06-15T06:54:04.751Z,27.35
2018-06-15T06:56:33.210Z,29.25
2018-06-15T06:59:01.648Z,28.70
2018-06-15T07:01:30.087Z,27.60
2018-06-15T07:03:58.515Z,27.50
2018-06-15T07:06:26.971Z,27.63
2018-06-15T07:08:55.406Z,28.10
2018-06-15T07:11:23.809Z,26.00
2018-06-15T07:13:52.250Z,27.73
2018-06-15T07:16:20.671Z,26.83
2018-06-15T07:18:49.080Z,26.40
2018-06-15T07:21:17.495Z,27.57
2018-06-15T07:23:45.938Z,26.03
2018-06-15T07:26:14.371Z,25.00
2018-06-15T07:28:42.842Z,24.37
2018-06-15T07:31:11.275Z,26.60
2018-06-15T07:33:39.734Z,25.10
2018-06-15T07:36:08.170Z,26.93
2018-06-15T07:38:36.618Z,26.10
2018-06-15T07:41:05.038Z,26.70
2018-06-15T07:43:33.495Z,27.20
2018-06-15T07:46:01.970Z,28.23
2018-06-15T07:48:30.380Z,27.30
2018-06-15T07:50:58.811Z,27.13
2018-06-15T07:53:27.230Z,26.50
2018-06-15T07:55:55.658Z,25.53
2018-06-15T07:58:24.103Z,24.87
2018-06-15T08:00:52.563Z,25.30
2018-06-15T08:03:21.025Z,25.43
2018-06-15T08:05:49.443Z,26.33
2018-06-15T08:08:17.918Z,26.33
2018-06-15T08:10:46.351Z,27.03
2018-06-15T08:13:14.802Z,24.97
2018-06-15T08:15:43.254Z,25.73
2018-06-15T08:18:11.705Z,27.03
2018-06-15T08:20:40.184Z,27.90
2018-06-15T08:23:08.624Z,26.47
2018-06-15T08:25:37.041Z,26.67
2018-06-15T08:28:05.486Z,26.17
2018-06-15T08:30:33.618Z,25.33
2018-06-15T08:33:02.059Z,24.60
2018-06-15T08:35:30.495Z,24.55
2018-06-15T08:37:58.922Z,23.18
2018-06-15T08:40:27.355Z,20.80
2018-06-15T08:42:55.873Z,18.42
2018-06-15T08:45:24.304Z,18.07
2018-06-15T08:47:52.722Z,20.48
2018-06-15T08:50:21.266Z,18.98
2018-06-15T08:52:49.739Z,17.70
2018-06-15T08:55:18.186Z,17.60
2018-06-15T08:57:46.671Z,18.00
2018-06-15T09:00:15.154Z,19.27
2018-06-15T09:02:43.670Z,19.10
2018-06-15T09:05:13.015Z,19.62
2018-06-15T09:07:41.483Z,17.60
2018-06-15T09:10:09.926Z,17.35
2018-06-15T09:12:38.387Z,17.20
2018-06-15T09:15:06.832Z,16.97
2018-06-15T09:17:35.274Z,16.37
2018-06-15T09:20:03.765Z,15.43
2018-06-15T09:22:32.186Z,15.53
2018-06-15T09:25:00.625Z,16.82
2018-06-15T09:27:29.070Z,17.85
2018-06-15T09:29:57.514Z,16.23
2018-06-15T09:32:25.934Z,16.45
2018-06-15T09:34:54.379Z,14.87
2018-06-15T09:37:22.811Z,16.35
2018-06-15T09:39:51.275Z,17.70
2018-06-15T09:42:19.707Z,16.10
2018-06-15T09:44:48.164Z,16.32
2018-06-15T09:47:16.598Z,15.05
2018-06-15T09:49:45.047Z,15.85
2018-06-15T09:52:13.499Z,15.25
2018-06-15T09:54:41.943Z,15.50
2018-06-15T09:57:10.372Z,16.52
2018-06-15T09:59:38.860Z,14.70
2018-06-15T10:02:07.313Z,14.38
2018-06-15T10:04:35.774Z,15.10
2018-06-15T10:07:03.911Z,15.25
2018-06-15T10:09:32.353Z,15.68
2018-06-15T10:12:01.030Z,17.10
2018-06-15T10:14:29.504Z,17.00
2018-06-15T10:16:58.005Z,16.55
2018-06-15T10:19:26.439Z,15.63
2018-06-15T10:21:54.887Z,16.00
2018-06-15T10:24:23.322Z,15.70
2018-06-15T10:26:52.267Z,15.30
2018-06-15T10:29:20.689Z,16.13
2018-06-15T10:31:49.170Z,15.43
2018-06-15T10:34:17.582Z,15.27
2018-06-15T10:36:46.007Z,14.55
2018-06-15T10:39:14.486Z,15.37
2018-06-15T10:41:42.931Z,15.13
2018-06-15T10:44:11.370Z,12.50
2018-06-15T10:46:39.811Z,11.40
2018-06-15T10:49:08.214Z,9.60
2018-06-15T10:51:36.638Z,10.75
2018-06-15T10:54:05.043Z,11.47
2018-06-15T10:56:33.476Z,11.15
2018-06-15T10:59:01.897Z,10.57
2018-06-15T11:01:30.338Z,10.73
2018-06-15T11:03:58.840Z,14.33
2018-06-15T11:06:27.249Z,11.60
2018-06-15T11:08:55.644Z,12.95
2018-06-15T11:11:24.058Z,11.57
2018-06-15T11:13:52.474Z,10.83
2018-06-15T11:16:20.938Z,10.90
2018-06-15T11:18:49.530Z,11.33
2018-06-15T11:21:17.994Z,13.40
2018-06-15T11:23:46.433Z,13.63
2018-06-15T11:26:14.850Z,13.50
2018-06-15T11:28:43.298Z,13.37
2018-06-15T11:31:11.714Z,12.90
2018-06-15T11:33:40.171Z,13.13
2018-06-15T11:36:08.622Z,11.67
2018-06-15T11:38:37.063Z,12.63
2018-06-15T11:41:05.544Z,12.03
2018-06-15T11:43:33.963Z,12.23
2018-06-15T11:46:02.402Z,12.33
2018-06-15T11:48:30.862Z,11.50
2018-06-15T11:50:59.278Z,11.70
2018-06-15T11:53:27.705Z,12.13
2018-06-15T11:55:56.135Z,12.67
2018-06-15T11:58:24.580Z,11.97
2018-06-15T12:00:52.994Z,12.90
2018-06-15T12:03:21.429Z,13.30
2018-06-15T12:05:49.850Z,11.13
2018-06-15T12:08:18.266Z,12.87
2018-06-15T12:10:46.710Z,13.13
2018-06-15T12:13:15.126Z,12.33
2018-06-15T12:15:43.567Z,12.43
2018-06-15T12:18:12.013Z,13.07
2018-06-15T12:20:40.471Z,12.43
2018-06-15T12:23:08.895Z,11.73
2018-06-15T12:25:37.334Z,11.03
2018-06-15T12:28:05.754Z,13.80
2018-06-15T12:30:34.204Z,15.33
2018-06-15T12:33:02.624Z,13.10
2018-06-15T12:35:31.073Z,12.60
2018-06-15T12:37:59.477Z,11.37
2018-06-15T12:40:27.912Z,13.40
2018-06-15T12:42:56.334Z,12.43
2018-06-15T12:45:24.795Z,12.23
2018-06-15T12:47:53.220Z,11.63
2018-06-15T12:50:21.675Z,11.77
2018-06-15T12:52:50.093Z,13.20
2018-06-15T12:55:19.034Z,12.07
2018-06-15T12:57:47.446Z,12.87
2018-06-15T13:00:15.871Z,11.77
2018-06-15T13:02:44.291Z,12.07
2018-06-15T13:05:12.714Z,10.93
2018-06-15T13:07:41.227Z,13.07
2018-06-15T13:10:09.642Z,11.83
2018-06-15T13:12:38.074Z,11.37
2018-06-15T13:15:07.930Z,10.77
2018-06-15T13:17:38.844Z,10.10
2018-06-15T13:20:09.713Z,11.60
2018-06-15T13:22:38.148Z,10.87
2018-06-15T13:25:06.583Z,11.00
2018-06-15T13:27:35.039Z,12.67
2018-06-15T13:30:03.473Z,11.57
2018-06-15T13:32:31.925Z,10.97
2018-06-15T13:35:00.366Z,10.23
2018-06-15T13:37:29.795Z,13.60
2018-06-15T13:39:58.363Z,11.87
2018-06-15T13:42:26.865Z,10.97
2018-06-15T13:44:55.709Z,12.30
2018-06-15T13:47:24.173Z,12.57
2018-06-15T13:49:52.614Z,12.47
2018-06-15T13:52:21.060Z,13.30
2018-06-15T13:54:49.491Z,12.93
2018-06-15T13:57:17.955Z,13.17
2018-06-15T13:59:46.376Z,12.37
2018-06-15T14:02:15.720Z,13.63
2018-06-15T14:04:44.219Z,13.83
2018-06-15T14:07:12.659Z,12.87
2018-06-15T14:09:41.255Z,13.90
2018-06-15T14:12:09.702Z,11.80
2018-06-15T14:14:38.119Z,13.05
2018-06-15T14:17:06.553Z,12.47
2018-06-15T14:19:35.006Z,13.60
2018-06-15T14:22:03.441Z,13.03
2018-06-15T14:24:31.885Z,13.07
2018-06-15T14:27:00.340Z,13.17
2018-06-15T14:29:28.802Z,13.03
2018-06-15T14:31:57.240Z,13.93
2018-06-15T14:34:26.438Z,12.77
2018-06-15T14:36:54.887Z,13.70
2018-06-15T14:39:24.264Z,13.10
2018-06-15T14:41:52.734Z,13.63
2018-06-15T14:44:21.835Z,14.00
2018-06-15T14:46:50.325Z,12.80
2018-06-15T14:49:18.726Z,13.23
2018-06-15T14:51:47.249Z,13.03
2018-06-15T14:54:15.678Z,13.23
2018-06-15T14:58:08.524Z,12.60
2018-06-15T15:00:36.952Z,13.73
2018-06-15T15:03:05.482Z,12.97
2018-06-15T15:05:34.534Z,12.47
2018-06-15T15:08:02.994Z,13.20
2018-06-15T15:10:31.554Z,13.97
2018-06-15T15:13:00.103Z,13.73
2018-06-15T15:15:28.704Z,13.73
2018-06-15T15:17:57.250Z,13.33
2018-06-15T15:20:25.730Z,14.60
2018-06-15T15:22:54.323Z,14.50
2018-06-15T15:25:22.762Z,13.77
2018-06-15T15:27:51.181Z,13.57
2018-06-15T15:30:19.628Z,13.13
2018-06-15T15:32:48.092Z,13.10
2018-06-15T15:35:16.567Z,12.83
2018-06-15T15:37:45.022Z,12.00
2018-06-15T15:40:13.548Z,11.93
2018-06-15T15:42:41.994Z,10.80
2018-06-15T15:45:12.050Z,11.20
2018-06-15T15:47:40.211Z,11.70
2018-06-15T15:50:08.686Z,11.20
2018-06-15T15:52:37.124Z,11.63
2018-06-15T15:55:05.631Z,10.53
2018-06-15T15:57:34.166Z,10.63
2018-06-15T16:00:02.636Z,10.13
2018-06-15T16:02:31.179Z,9.63
2018-06-15T16:04:59.707Z,9.63
2018-06-15T16:07:28.278Z,9.47
2018-06-15T16:09:57.838Z,9.90
2018-06-15T16:12:26.553Z,9.80
2018-06-15T16:14:55.026Z,9.30
2018-06-15T16:17:23.463Z,9.87
2018-06-15T16:19:51.895Z,10.10
2018-06-15T16:22:20.338Z,10.00
2018-06-15T16:24:48.774Z,9.87
2018-06-15T16:27:17.249Z,10.00
2018-06-15T16:29:45.650Z,10.07
2018-06-15T16:32:14.084Z,9.60
2018-06-15T16:34:42.500Z,10.20
2018-06-15T16:37:11.018Z,9.50
2018-06-15T16:39:39.478Z,9.73
2018-06-15T16:42:07.923Z,9.80
2018-06-15T16:44:36.374Z,9.47
2018-06-15T16:47:04.819Z,9.10
2018-06-15T16:49:33.250Z,11.00
2018-06-15T16:52:01.692Z,10.23
2018-06-15T16:54:30.115Z,10.57
2018-06-15T16:56:58.566Z,10.97
2018-06-15T16:59:26.989Z,10.53
2018-06-15T17:01:55.474Z,10.07
2018-06-15T17:04:23.875Z,9.77
2018-06-15T17:06:52.329Z,11.33
2018-06-15T17:09:20.765Z,9.97
2018-06-15T17:11:49.190Z,9.90
2018-06-15T17:14:17.609Z,9.33
2018-06-15T17:16:46.048Z,9.60
2018-06-15T17:19:14.465Z,8.73
2018-06-15T17:21:42.883Z,9.03
2018-06-15T17:24:11.294Z,8.83
2018-06-15T17:26:39.715Z,8.60
2018-06-15T17:29:08.128Z,8.80
2018-06-15T17:31:36.552Z,8.27
2018-06-15T17:34:05.004Z,8.20
2018-06-15T17:36:33.448Z,8.37
2018-06-15T17:39:03.149Z,8.20
2018-06-15T17:41:31.556Z,8.80
2018-06-15T17:44:00.019Z,7.93
2018-06-15T17:46:28.431Z,7.77
2018-06-15T17:48:56.955Z,8.20
2018-06-15T17:51:25.440Z,8.07
2018-06-15T17:53:53.924Z,7.27
2018-06-15T17:56:22.347Z,8.50
2018-06-15T17:58:50.785Z,12.50
2018-06-15T18:01:19.215Z,9.90
2018-06-15T18:03:47.660Z,8.27
2018-06-15T18:06:16.099Z,7.13
2018-06-15T18:08:45.178Z,6.77
2018-06-15T18:11:13.615Z,6.80
2018-06-15T18:13:42.070Z,9.00
2018-06-15T18:16:10.519Z,9.37
2018-06-15T18:18:38.682Z,11.43
2018-06-15T18:21:07.079Z,9.53
2018-06-15T18:23:35.489Z,9.17
2018-06-15T18:26:04.045Z,9.03
2018-06-15T18:28:32.461Z,9.10
2018-06-15T18:31:00.863Z,7.83
2018-06-15T18:33:29.278Z,6.90
2018-06-15T18:35:57.734Z,7.33
2018-06-15T18:38:26.165Z,6.40
2018-06-15T18:40:54.642Z,6.03
2018-06-15T18:43:23.082Z,7.77
2018-06-15T18:45:51.556Z,11.00
2018-06-15T18:48:20.051Z,9.33
2018-06-15T18:50:48.829Z,8.63
2018-06-15T18:53:17.298Z,16.70
2018-06-15T18:55:45.931Z,24.93
2018-06-15T18:58:14.394Z,17.53
2018-06-15T19:00:42.880Z,21.63
2018-06-15T19:03:11.551Z,20.30
2018-06-15T19:05:40.027Z,10.80
2018-06-15T19:08:08.483Z,10.03
2018-06-15T19:10:37.143Z,9.33
2018-06-15T19:13:05.982Z,8.77
2018-06-15T19:15:34.642Z,9.77
2018-06-15T19:18:03.166Z,9.27
2018-06-15T19:20:31.704Z,9.33
2018-06-15T19:23:00.281Z,8.83
2018-06-15T19:25:28.762Z,9.00
2018-06-15T19:27:57.198Z,9.50
2018-06-15T19:30:25.769Z,9.53
2018-06-15T19:32:54.255Z,9.77
2018-06-15T19:35:22.823Z,8.67
2018-06-15T19:37:51.326Z,8.20
2018-06-15T19:40:19.918Z,9.30
2018-06-15T19:42:48.407Z,9.03
2018-06-15T19:45:16.518Z,8.43
2018-06-15T19:47:45.087Z,8.27
2018-06-15T19:50:13.548Z,9.20
2018-06-15T19:52:42.039Z,8.47
2018-06-15T19:55:10.491Z,8.23
2018-06-15T19:57:38.931Z,8.47
2018-06-15T20:00:07.359Z,8.73
2018-06-15T20:02:35.810Z,9.40
2018-06-15T20:05:04.270Z,9.37
2018-06-15T20:07:32.721Z,9.33
2018-06-15T20:10:01.847Z,8.57
2018-06-15T20:12:30.289Z,8.33
2018-06-15T20:14:58.828Z,9.77
2018-06-15T20:17:27.283Z,10.07
2018-06-15T20:19:55.749Z,8.97
2018-06-15T20:22:24.226Z,9.43
2018-06-15T20:24:52.652Z,10.03
2018-06-15T20:27:21.129Z,10.13
2018-06-15T20:29:49.547Z,10.03
2018-06-15T20:32:18.256Z,11.23
2018-06-15T20:34:46.690Z,11.03
2018-06-15T20:37:15.133Z,11.13
2018-06-15T20:39:43.571Z,11.20
2018-06-15T20:42:12.047Z,11.77
2018-06-15T20:44:40.523Z,11.63
2018-06-15T20:47:08.994Z,12.20
2018-06-15T20:49:37.452Z,12.27
2018-06-15T20:52:06.340Z,12.60
2018-06-15T20:54:34.783Z,12.53
2018-06-15T20:57:03.263Z,13.57
2018-06-15T20:59:31.714Z,12.80
2018-06-15T21:02:00.154Z,12.80
2018-06-15T21:04:28.618Z,13.43
2018-06-15T21:06:57.091Z,12.20
2018-06-15T21:09:28.081Z,12.77
2018-06-15T21:11:56.557Z,14.77
2018-06-15T21:14:25.783Z,13.57
2018-06-15T21:16:54.341Z,13.87
2018-06-15T21:19:22.782Z,12.93
2018-06-15T21:21:51.264Z,13.10
2018-06-15T21:24:19.722Z,13.50
2018-06-15T21:26:48.159Z,14.00
2018-06-15T21:29:16.650Z,14.50
2018-06-15T21:31:45.111Z,14.00
2018-06-15T21:34:13.627Z,14.63
2018-06-15T21:36:42.131Z,13.90
2018-06-15T21:39:10.699Z,14.67
2018-06-15T21:41:39.177Z,13.80
2018-06-15T21:44:07.827Z,14.00
2018-06-15T21:46:36.274Z,14.37
2018-06-15T21:49:04.766Z,14.53
2018-06-15T21:51:33.223Z,15.40
2018-06-15T21:54:01.682Z,15.47
2018-06-15T21:56:30.410Z,15.27
2018-06-15T21:58:58.878Z,15.37
2018-06-15T22:01:29.091Z,15.33
2018-06-15T22:03:58.447Z,16.63
2018-06-15T22:06:27.136Z,16.23
2018-06-15T22:08:55.558Z,16.57
2018-06-15T22:11:24.006Z,16.93
2018-06-15T22:13:52.459Z,17.13
2018-06-15T22:16:21.146Z,16.90
2018-06-15T22:18:49.592Z,17.10
2018-06-15T22:21:18.030Z,16.87
2018-06-15T22:23:46.448Z,17.50
2018-06-15T22:26:14.882Z,17.87
2018-06-15T22:28:43.315Z,18.20
2018-06-15T22:31:11.789Z,18.47
2018-06-15T22:33:40.226Z,18.87
2018-06-15T22:36:08.670Z,18.57
2018-06-15T22:38:37.120Z,18.27
2018-06-15T22:41:05.584Z,17.83
2018-06-15T22:43:34.058Z,18.97
2018-06-15T22:46:02.534Z,19.33
2018-06-15T22:48:32.601Z,17.17
2018-06-15T22:51:02.175Z,19.00
2018-06-15T22:53:30.597Z,18.70
2018-06-15T22:55:59.031Z,19.37
2018-06-15T22:58:27.915Z,18.60
2018-06-15T23:00:56.334Z,19.40
2018-06-15T23:03:24.780Z,20.03
2018-06-15T23:05:53.231Z,19.67
2018-06-15T23:08:21.686Z,20.17
2018-06-15T23:10:50.155Z,20.83
2018-06-15T23:13:18.650Z,20.37
2018-06-15T23:15:47.151Z,20.57
2018-06-15T23:18:15.624Z,21.83
2018-06-15T23:20:44.096Z,22.53
2018-06-15T23:23:12.571Z,23.53
2018-06-15T23:25:41.008Z,22.47
2018-06-15T23:28:09.512Z,22.43
2018-06-15T23:30:37.962Z,22.70
2018-06-15T23:33:06.423Z,23.33
2018-06-15T23:35:34.906Z,21.83
2018-06-15T23:38:03.422Z,21.93
2018-06-15T23:40:31.863Z,21.40
2018-06-15T23:43:00.443Z,21.90
2018-06-15T23:45:29.326Z,22.83
2018-06-15T23:47:57.794Z,22.10
2018-06-15T23:50:26.274Z,23.47
2018-06-15T23:52:54.767Z,23.00
2018-06-15T23:55:23.251Z,23.13
2018-06-15T23:57:51.730Z,23.57
